Lobos, Argentina
Current Conditions -  °F | °C
As of 5:00 PM on Thursday 23 Oct 2014 (Local Time) from SAEZ Reporting Station
Clear Clear  
Wind Chill: 86°   Ceiling: Unl
Heat Index: 86°   Visibility: 6mi
Dew Point: 57°   Wind: 10mph
Humidity: 37%   Direction: 80°E
Pressure: 29.91"   Gusts: NA
Location:  35.18°S, 59.1°W
Report Text: SAEZ 232000Z 08009KT CAVOK 30/14 Q1013
Loading
Personal Weather Stations






























Interactive Weather Map
Tropical Storm Tracking
New forecast layout! Learn more

10-Day Weather Forecast

Advertisements
Track Severe Weather on mobile